LGRX/GPA METAR and TAF weather

Enter ICAO airport designator
Station Type Date Time Source
LGRX METAR 2020/10/29 16:50 UTC NOAA

LGRX 291650Z 00000KT 9999 FEW025 17/14 Q1017


Station Type Date Time Source
LGRX Decoded METAR 2020/10/29 16:50 UTC NOAA

Araxos Airport , Greece (LGRX) 38-09N 021-25E 12M
Oct 29, 2020 - 12:50 PM EDT / 2020.10.29 1650 UTC
Wind: Calm:0
Visibility: greater than 7 mile(s):0
Sky conditions: mostly clear
Temperature: 62 F (17 C)
Dew Point: 57 F (14 C)
Relative Humidity: 82%
Pressure (altimeter): 30.03 in. Hg (1017 hPa)
ob: LGRX 291650Z 00000KT 9999 FEW025 17/14 Q1017
cycle: 17

Station Type Date Time Source
LGRX TAF 2020/03/18 09:39 UTC NOAA

TAF LGRX 180800Z 1809/1821 33006KT 9999 FEW030
BECMG 1816/1818 07010KT

Example: see airport list